sensor_id;sensor_type;location;lat;lon;timestamp;pressure;altitude;pressure_sealevel;temperature;humidity
20825;BME280;10573;50.936;6.978;2023-02-02T00:02:02;101697.25;;;9.20;68.48
20825;BME280;10573;50.936;6.978;2023-02-02T00:04:30;101691.72;;;9.09;68.98
20825;BME280;10573;50.936;6.978;2023-02-02T00:06:56;101698.09;;;9.20;68.51
20825;BME280;10573;50.936;6.978;2023-02-02T00:09:24;101703.66;;;9.19;68.40
20825;BME280;10573;50.936;6.978;2023-02-02T00:11:51;101702.56;;;9.09;68.54
20825;BME280;10573;50.936;6.978;2023-02-02T00:14:17;101701.00;;;9.30;68.25
20825;BME280;10573;50.936;6.978;2023-02-02T00:16:50;101699.75;;;9.10;68.69
20825;BME280;10573;50.936;6.978;2023-02-02T00:19:20;101699.63;;;9.12;68.45
20825;BME280;10573;50.936;6.978;2023-02-02T00:21:46;101709.53;;;9.13;68.47
20825;BME280;10573;50.936;6.978;2023-02-02T00:24:14;101700.66;;;8.98;68.74
20825;BME280;10573;50.936;6.978;2023-02-02T00:26:41;101698.34;;;9.04;68.55
20825;BME280;10573;50.936;6.978;2023-02-02T00:29:08;101695.63;;;9.17;68.45
20825;BME280;10573;50.936;6.978;2023-02-02T00:31:37;101690.97;;;9.06;68.51
20825;BME280;10573;50.936;6.978;2023-02-02T00:34:02;101694.09;;;9.13;68.44
20825;BME280;10573;50.936;6.978;2023-02-02T00:36:27;101694.97;;;9.14;68.48
20825;BME280;10573;50.936;6.978;2023-02-02T00:38:53;101705.56;;;9.30;67.91
20825;BME280;10573;50.936;6.978;2023-02-02T00:41:19;101706.25;;;9.20;68.14
20825;BME280;10573;50.936;6.978;2023-02-02T00:43:44;101695.50;;;9.19;68.39
20825;BME280;10573;50.936;6.978;2023-02-02T00:46:17;101691.72;;;9.09;68.47
20825;BME280;10573;50.936;6.978;2023-02-02T00:48:43;101687.97;;;9.22;68.30
20825;BME280;10573;50.936;6.978;2023-02-02T00:51:08;101687.09;;;9.22;68.08
20825;BME280;10573;50.936;6.978;2023-02-02T00:53:34;101680.22;;;9.29;67.93
20825;BME280;10573;50.936;6.978;2023-02-02T00:56:00;101691.22;;;9.28;67.88
20825;BME280;10573;50.936;6.978;2023-02-02T00:58:25;101680.53;;;9.37;67.53
20825;BME280;10573;50.936;6.978;2023-02-02T01:00:51;101670.75;;;9.35;67.78
20825;BME280;10573;50.936;6.978;2023-02-02T01:03:16;101682.34;;;9.50;67.50
20825;BME280;10573;50.936;6.978;2023-02-02T01:05:42;101678.59;;;9.02;68.32
20825;BME280;10573;50.936;6.978;2023-02-02T01:08:07;101687.09;;;9.22;68.54
20825;BME280;10573;50.936;6.978;2023-02-02T01:10:33;101678.88;;;9.11;68.54
20825;BME280;10573;50.936;6.978;2023-02-02T01:12:59;101687.09;;;9.22;68.35
20825;BME280;10573;50.936;6.978;2023-02-02T01:15:25;101686.91;;;9.12;68.95
20825;BME280;10573;50.936;6.978;2023-02-02T01:17:50;101686.38;;;9.20;68.43
20825;BME280;10573;50.936;6.978;2023-02-02T01:20:18;101683.16;;;9.26;68.25
20825;BME280;10573;50.936;6.978;2023-02-02T01:22:45;101677.19;;;9.21;68.82
20825;BME280;10573;50.936;6.978;2023-02-02T01:25:10;101680.13;;;9.31;68.14
20825;BME280;10573;50.936;6.978;2023-02-02T01:27:36;101700.78;;;9.33;68.14
20825;BME280;10573;50.936;6.978;2023-02-02T01:30:02;101701.00;;;9.30;67.89
20825;BME280;10573;50.936;6.978;2023-02-02T01:32:28;101700.78;;;9.33;68.08
20825;BME280;10573;50.936;6.978;2023-02-02T01:34:53;101701.47;;;9.24;68.83
20825;BME280;10573;50.936;6.978;2023-02-02T01:37:18;101698.63;;;9.26;68.68
20825;BME280;10573;50.936;6.978;2023-02-02T01:39:46;101711.72;;;9.07;69.58
20825;BME280;10573;50.936;6.978;2023-02-02T01:42:14;101708.44;;;9.15;70.11
20825;BME280;10573;50.936;6.978;2023-02-02T01:47:26;101711.88;;;9.30;70.53
20825;BME280;10573;50.936;6.978;2023-02-02T01:49:53;101707.94;;;9.34;70.60
20825;BME280;10573;50.936;6.978;2023-02-02T01:52:21;101714.22;;;9.11;72.14
20825;BME280;10573;50.936;6.978;2023-02-02T01:54:52;101707.78;;;9.12;72.00
20825;BME280;10573;50.936;6.978;2023-02-02T01:57:27;101726.31;;;8.94;72.55
20825;BME280;10573;50.936;6.978;2023-02-02T01:59:56;101714.94;;;8.76;73.69
20825;BME280;10573;50.936;6.978;2023-02-02T02:02:24;101721.75;;;8.68;74.03
20825;BME280;10573;50.936;6.978;2023-02-02T02:04:51;101719.00;;;8.94;73.35
20825;BME280;10573;50.936;6.978;2023-02-02T02:07:17;101735.25;;;8.96;73.33
20825;BME280;10573;50.936;6.978;2023-02-02T02:09:42;101732.59;;;8.94;73.28
20825;BME280;10573;50.936;6.978;2023-02-02T02:12:12;101734.88;;;9.00;73.15
20825;BME280;10573;50.936;6.978;2023-02-02T02:14:38;101733.03;;;9.14;73.00
20825;BME280;10573;50.936;6.978;2023-02-02T02:32:25;101713.81;;;8.91;73.22
20825;BME280;10573;50.936;6.978;2023-02-02T02:40:25;101706.94;;;8.98;72.46
20825;BME280;10573;50.936;6.978;2023-02-02T02:42:59;101704.16;;;8.87;72.38
20825;BME280;10573;50.936;6.978;2023-02-02T02:45:27;101699.88;;;9.09;71.76
20825;BME280;10573;50.936;6.978;2023-02-02T02:47:53;101708.25;;;8.93;72.04
20825;BME280;10573;50.936;6.978;2023-02-02T02:50:20;101706.44;;;8.93;71.88
20825;BME280;10573;50.936;6.978;2023-02-02T02:52:46;101704.44;;;8.95;71.36
20825;BME280;10573;50.936;6.978;2023-02-02T02:55:13;101708.03;;;9.09;71.05
20825;BME280;10573;50.936;6.978;2023-02-02T02:58:05;101710.38;;;9.26;70.78
20825;BME280;10573;50.936;6.978;2023-02-02T03:00:46;101699.25;;;9.29;70.67
20825;BME280;10573;50.936;6.978;2023-02-02T03:03:28;101705.28;;;9.21;70.41
20825;BME280;10573;50.936;6.978;2023-02-02T03:06:04;101706.47;;;9.54;69.20
20825;BME280;10573;50.936;6.978;2023-02-02T03:08:43;101718.88;;;9.21;69.55
20825;BME280;10573;50.936;6.978;2023-02-02T03:11:12;101717.28;;;9.43;69.26
20825;BME280;10573;50.936;6.978;2023-02-02T03:13:39;101704.75;;;9.53;69.23
20825;BME280;10573;50.936;6.978;2023-02-02T03:16:05;101723.44;;;9.58;69.28
20825;BME280;10573;50.936;6.978;2023-02-02T03:18:31;101711.38;;;9.49;69.83
20825;BME280;10573;50.936;6.978;2023-02-02T03:20:57;101707.91;;;9.47;69.69
20825;BME280;10573;50.936;6.978;2023-02-02T03:23:23;101711.03;;;9.54;69.83
20825;BME280;10573;50.936;6.978;2023-02-02T03:25:49;101709.38;;;9.40;70.61
20825;BME280;10573;50.936;6.978;2023-02-02T03:28:15;101720.69;;;9.21;70.85
20825;BME280;10573;50.936;6.978;2023-02-02T03:30:41;101712.53;;;9.34;70.51
20825;BME280;10573;50.936;6.978;2023-02-02T03:33:08;101725.09;;;9.48;70.92
20825;BME280;10573;50.936;6.978;2023-02-02T03:35:34;101721.63;;;9.46;70.92
20825;BME280;10573;50.936;6.978;2023-02-02T03:37:59;101721.41;;;9.36;71.37
20825;BME280;10573;50.936;6.978;2023-02-02T03:40:25;101725.31;;;9.45;70.82
20825;BME280;10573;50.936;6.978;2023-02-02T03:42:51;101733.44;;;9.33;70.89
20825;BME280;10573;50.936;6.978;2023-02-02T03:45:16;101722.53;;;9.33;71.84
20825;BME280;10573;50.936;6.978;2023-02-02T03:47:42;101730.09;;;9.54;70.89
20825;BME280;10573;50.936;6.978;2023-02-02T03:50:08;101725.78;;;9.38;71.40
20825;BME280;10573;50.936;6.978;2023-02-02T03:52:33;101724.19;;;9.23;71.60
20825;BME280;10573;50.936;6.978;2023-02-02T03:54:59;101730.72;;;9.20;71.74
20825;BME280;10573;50.936;6.978;2023-02-02T03:57:24;101729.16;;;9.29;71.35
20825;BME280;10573;50.936;6.978;2023-02-02T03:59:50;101731.97;;;9.40;71.50
20825;BME280;10573;50.936;6.978;2023-02-02T04:02:15;101729.09;;;9.18;72.42
20825;BME280;10573;50.936;6.978;2023-02-02T04:04:40;101732.13;;;9.26;72.24
20825;BME280;10573;50.936;6.978;2023-02-02T04:07:06;101739.00;;;9.19;72.03
20825;BME280;10573;50.936;6.978;2023-02-02T04:09:31;101733.13;;;9.12;72.78
20825;BME280;10573;50.936;6.978;2023-02-02T04:11:57;101733.38;;;9.09;72.71
20825;BME280;10573;50.936;6.978;2023-02-02T04:14:22;101730.72;;;9.07;72.99
20825;BME280;10573;50.936;6.978;2023-02-02T04:16:47;101730.53;;;9.11;72.87
20825;BME280;10573;50.936;6.978;2023-02-02T04:19:13;101737.59;;;9.13;73.17
20825;BME280;10573;50.936;6.978;2023-02-02T04:21:39;101743.22;;;9.23;73.27
20825;BME280;10573;50.936;6.978;2023-02-02T04:24:05;101743.91;;;9.14;73.04
20825;BME280;10573;50.936;6.978;2023-02-02T04:26:31;101741.03;;;9.28;72.63
20825;BME280;10573;50.936;6.978;2023-02-02T04:28:56;101738.22;;;9.17;73.06
20825;BME280;10573;50.936;6.978;2023-02-02T04:31:22;101744.31;;;9.07;73.90
20825;BME280;10573;50.936;6.978;2023-02-02T04:33:47;101744.25;;;9.09;73.26
20825;BME280;10573;50.936;6.978;2023-02-02T04:36:13;101742.56;;;9.19;72.88
20825;BME280;10573;50.936;6.978;2023-02-02T04:38:38;101748.78;;;9.09;73.78
20825;BME280;10573;50.936;6.978;2023-02-02T04:41:09;101752.50;;;8.95;74.24
20825;BME280;10573;50.936;6.978;2023-02-02T04:43:35;101758.81;;;8.95;73.99
20825;BME280;10573;50.936;6.978;2023-02-02T04:46:02;101752.19;;;8.86;74.19
20825;BME280;10573;50.936;6.978;2023-02-02T04:48:27;101758.16;;;9.04;73.79
20825;BME280;10573;50.936;6.978;2023-02-02T04:51:00;101756.63;;;9.00;73.83
20825;BME280;10573;50.936;6.978;2023-02-02T04:53:25;101756.06;;;9.21;73.52
20825;BME280;10573;50.936;6.978;2023-02-02T04:55:51;101756.75;;;8.86;74.19
20825;BME280;10573;50.936;6.978;2023-02-02T04:58:16;101760.13;;;9.02;74.33
20825;BME280;10573;50.936;6.978;2023-02-02T05:00:42;101756.28;;;9.18;73.79
20825;BME280;10573;50.936;6.978;2023-02-02T05:03:08;101764.34;;;9.06;74.24
20825;BME280;10573;50.936;6.978;2023-02-02T05:05:33;101765.66;;;8.75;74.72
20825;BME280;10573;50.936;6.978;2023-02-02T05:07:59;101773.50;;;8.80;75.19
20825;BME280;10573;50.936;6.978;2023-02-02T05:10:24;101770.34;;;8.86;75.10
20825;BME280;10573;50.936;6.978;2023-02-02T05:12:53;101769.91;;;8.92;74.70
20825;BME280;10573;50.936;6.978;2023-02-02T05:15:19;101763.16;;;8.98;74.78
20825;BME280;10573;50.936;6.978;2023-02-02T05:17:48;101762.63;;;9.05;74.75
20825;BME280;10573;50.936;6.978;2023-02-02T05:20:14;101770.03;;;8.90;75.69
20825;BME280;10573;50.936;6.978;2023-02-02T05:22:40;101772.63;;;8.66;76.39
20825;BME280;10573;50.936;6.978;2023-02-02T05:25:06;101773.28;;;8.57;76.46
20825;BME280;10573;50.936;6.978;2023-02-02T05:27:33;101776.09;;;8.55;76.44
20825;BME280;10573;50.936;6.978;2023-02-02T05:29:58;101765.88;;;8.72;75.76
20825;BME280;10573;50.936;6.978;2023-02-02T05:32:24;101767.97;;;8.81;75.62
20825;BME280;10573;50.936;6.978;2023-02-02T05:34:49;101774.16;;;8.96;75.59
20825;BME280;10573;50.936;6.978;2023-02-02T05:37:15;101769.59;;;8.84;75.21
20825;BME280;10573;50.936;6.978;2023-02-02T05:39:40;101765.66;;;9.01;74.46
20825;BME280;10573;50.936;6.978;2023-02-02T05:42:07;101759.13;;;9.03;75.12
20825;BME280;10573;50.936;6.978;2023-02-02T05:44:33;101756.09;;;9.08;74.48
20825;BME280;10573;50.936;6.978;2023-02-02T05:46:58;101763.47;;;9.06;74.29
20825;BME280;10573;50.936;6.978;2023-02-02T05:49:24;101757.94;;;8.82;74.61
20825;BME280;10573;50.936;6.978;2023-02-02T05:51:53;101760.56;;;8.96;74.58
20825;BME280;10573;50.936;6.978;2023-02-02T05:54:19;101758.25;;;8.90;74.88
20825;BME280;10573;50.936;6.978;2023-02-02T05:56:46;101756.41;;;9.03;74.74
20825;BME280;10573;50.936;6.978;2023-02-02T05:59:12;101759.34;;;9.00;74.66
20825;BME280;10573;50.936;6.978;2023-02-02T06:01:37;101756.97;;;8.96;74.65
20825;BME280;10573;50.936;6.978;2023-02-02T06:04:02;101758.06;;;8.93;74.72
20825;BME280;10573;50.936;6.978;2023-02-02T06:06:28;101748.94;;;8.81;74.79
20825;BME280;10573;50.936;6.978;2023-02-02T06:08:53;101756.97;;;8.96;74.49
20825;BME280;10573;50.936;6.978;2023-02-02T06:11:18;101772.41;;;8.95;74.12
20825;BME280;10573;50.936;6.978;2023-02-02T06:13:44;101763.50;;;8.80;74.58
20825;BME280;10573;50.936;6.978;2023-02-02T06:16:09;101778.06;;;8.92;74.49
20825;BME280;10573;50.936;6.978;2023-02-02T06:18:36;101776.00;;;8.96;74.14
20825;BME280;10573;50.936;6.978;2023-02-02T06:21:04;101780.22;;;8.87;74.01
20825;BME280;10573;50.936;6.978;2023-02-02T06:23:31;101786.97;;;9.20;73.72
20825;BME280;10573;50.936;6.978;2023-02-02T06:25:56;101786.09;;;9.06;73.85
20825;BME280;10573;50.936;6.978;2023-02-02T06:28:22;101791.66;;;8.92;73.80
20825;BME280;10573;50.936;6.978;2023-02-02T06:30:47;101790.84;;;9.16;73.29
20825;BME280;10573;50.936;6.978;2023-02-02T06:33:13;101795.25;;;9.05;73.26
20825;BME280;10573;50.936;6.978;2023-02-02T06:35:38;101801.41;;;9.07;73.56
20825;BME280;10573;50.936;6.978;2023-02-02T06:38:04;101803.06;;;8.97;73.67
20825;BME280;10573;50.936;6.978;2023-02-02T06:40:29;101805.56;;;9.00;73.32
20825;BME280;10573;50.936;6.978;2023-02-02T06:42:59;101814.69;;;8.99;73.31
20825;BME280;10573;50.936;6.978;2023-02-02T06:45:26;101815.00;;;9.07;73.30
20825;BME280;10573;50.936;6.978;2023-02-02T06:47:52;101808.47;;;9.10;73.02
20825;BME280;10573;50.936;6.978;2023-02-02T06:50:18;101810.13;;;9.13;72.73
20825;BME280;10573;50.936;6.978;2023-02-02T06:52:50;101816.31;;;9.15;72.72
20825;BME280;10573;50.936;6.978;2023-02-02T06:55:16;101808.47;;;9.10;72.30
20825;BME280;10573;50.936;6.978;2023-02-02T06:57:42;101801.31;;;8.96;72.76
20825;BME280;10573;50.936;6.978;2023-02-02T07:00:08;101803.72;;;9.14;72.27
20825;BME280;10573;50.936;6.978;2023-02-02T07:02:33;101821.97;;;9.12;72.72
20825;BME280;10573;50.936;6.978;2023-02-02T07:04:59;101815.22;;;9.04;72.29
20825;BME280;10573;50.936;6.978;2023-02-02T07:07:25;101803.03;;;9.10;71.98
20825;BME280;10573;50.936;6.978;2023-02-02T07:09:50;101799.97;;;9.28;71.90
20825;BME280;10573;50.936;6.978;2023-02-02T07:12:16;101813.94;;;9.23;72.13
20825;BME280;10573;50.936;6.978;2023-02-02T07:14:44;101815.78;;;8.97;72.46
20825;BME280;10573;50.936;6.978;2023-02-02T07:17:10;101819.81;;;9.04;72.01
20825;BME280;10573;50.936;6.978;2023-02-02T07:19:35;101823.47;;;8.90;72.25
20825;BME280;10573;50.936;6.978;2023-02-02T07:22:01;101827.16;;;9.28;72.21
20825;BME280;10573;50.936;6.978;2023-02-02T07:24:26;101833.38;;;9.17;71.85
20825;BME280;10573;50.936;6.978;2023-02-02T07:26:52;101831.78;;;9.01;72.85
20825;BME280;10573;50.936;6.978;2023-02-02T07:29:17;101829.03;;;9.27;71.69
20825;BME280;10573;50.936;6.978;2023-02-02T07:31:42;101835.91;;;9.20;71.71
20825;BME280;10573;50.936;6.978;2023-02-02T07:34:08;101834.34;;;9.16;71.69
20825;BME280;10573;50.936;6.978;2023-02-02T07:36:34;101833.06;;;9.09;71.86
20825;BME280;10573;50.936;6.978;2023-02-02T07:38:59;101833.06;;;9.09;72.30
20825;BME280;10573;50.936;6.978;2023-02-02T07:41:28;101838.72;;;9.31;71.58
20825;BME280;10573;50.936;6.978;2023-02-02T07:43:53;101833.50;;;9.28;71.64
20825;BME280;10573;50.936;6.978;2023-02-02T07:46:19;101838.94;;;9.28;71.61
20825;BME280;10573;50.936;6.978;2023-02-02T07:48:45;101850.00;;;9.25;71.69
20825;BME280;10573;50.936;6.978;2023-02-02T07:51:14;101843.38;;;9.29;71.47
20825;BME280;10573;50.936;6.978;2023-02-02T07:53:44;101844.56;;;9.51;70.72
20825;BME280;10573;50.936;6.978;2023-02-02T07:56:13;101847.44;;;9.11;71.95
20825;BME280;10573;50.936;6.978;2023-02-02T07:58:39;101845.25;;;9.29;71.51
20825;BME280;10573;50.936;6.978;2023-02-02T08:01:07;101849.03;;;9.39;71.58
20825;BME280;10573;50.936;6.978;2023-02-02T08:03:34;101855.25;;;9.15;71.95
20825;BME280;10573;50.936;6.978;2023-02-02T08:06:00;101854.38;;;9.15;71.97
20825;BME280;10573;50.936;6.978;2023-02-02T08:08:26;101864.16;;;9.04;72.47
20825;BME280;10573;50.936;6.978;2023-02-02T08:10:52;101848.19;;;9.13;72.85
20825;BME280;10573;50.936;6.978;2023-02-02T08:13:18;101843.19;;;9.19;72.47
20825;BME280;10573;50.936;6.978;2023-02-02T08:15:44;101857.19;;;9.26;72.11
20825;BME280;10573;50.936;6.978;2023-02-02T08:18:09;101846.63;;;9.34;72.12
20825;BME280;10573;50.936;6.978;2023-02-02T08:20:34;101853.50;;;9.14;72.54
20825;BME280;10573;50.936;6.978;2023-02-02T08:23:00;101853.50;;;9.27;72.36
20825;BME280;10573;50.936;6.978;2023-02-02T08:25:25;101861.53;;;9.16;72.91
20825;BME280;10573;50.936;6.978;2023-02-02T08:27:55;101850.69;;;9.03;73.43
20825;BME280;10573;50.936;6.978;2023-02-02T08:30:23;101854.69;;;9.10;73.03
20825;BME280;10573;50.936;6.978;2023-02-02T08:32:48;101863.84;;;9.22;72.79
20825;BME280;10573;50.936;6.978;2023-02-02T08:35:14;101864.06;;;9.19;73.06
20825;BME280;10573;50.936;6.978;2023-02-02T08:37:39;101862.31;;;9.18;72.92
20825;BME280;10573;50.936;6.978;2023-02-02T08:40:05;101870.56;;;9.03;73.40
20825;BME280;10573;50.936;6.978;2023-02-02T08:42:31;101873.94;;;8.94;73.77
20825;BME280;10573;50.936;6.978;2023-02-02T08:44:56;101886.00;;;8.90;73.95
20825;BME280;10573;50.936;6.978;2023-02-02T08:47:22;101883.91;;;8.81;73.81
20825;BME280;10573;50.936;6.978;2023-02-02T08:49:47;101877.88;;;9.03;73.82
20825;BME280;10573;50.936;6.978;2023-02-02T08:52:12;101877.28;;;8.72;74.13
20825;BME280;10573;50.936;6.978;2023-02-02T08:54:38;101884.72;;;9.09;73.49
20825;BME280;10573;50.936;6.978;2023-02-02T08:57:04;101877.22;;;9.12;73.49
20825;BME280;10573;50.936;6.978;2023-02-02T08:59:29;101881.47;;;9.16;73.34
20825;BME280;10573;50.936;6.978;2023-02-02T09:01:54;101881.78;;;9.12;73.25
20825;BME280;10573;50.936;6.978;2023-02-02T09:04:20;101899.19;;;9.09;73.47
20825;BME280;10573;50.936;6.978;2023-02-02T09:06:46;101890.94;;;9.11;73.48
20825;BME280;10573;50.936;6.978;2023-02-02T09:09:14;101888.84;;;9.14;73.57
20825;BME280;10573;50.936;6.978;2023-02-02T09:11:41;101886.38;;;9.24;73.07
20825;BME280;10573;50.936;6.978;2023-02-02T09:14:06;101888.97;;;9.13;73.29
20825;BME280;10573;50.936;6.978;2023-02-02T09:16:33;101901.47;;;9.02;74.11
20825;BME280;10573;50.936;6.978;2023-02-02T09:18:59;101897.31;;;8.97;74.38
20825;BME280;10573;50.936;6.978;2023-02-02T09:21:25;101902.88;;;9.21;73.50
20825;BME280;10573;50.936;6.978;2023-02-02T09:23:51;101903.31;;;9.28;73.10
20825;BME280;10573;50.936;6.978;2023-02-02T09:26:27;101904.41;;;9.38;72.75
20825;BME280;10573;50.936;6.978;2023-02-02T09:28:55;101911.16;;;9.32;72.81
20825;BME280;10573;50.936;6.978;2023-02-02T09:31:22;101920.81;;;9.23;72.91
20825;BME280;10573;50.936;6.978;2023-02-02T09:33:48;101917.81;;;9.28;72.93
20825;BME280;10573;50.936;6.978;2023-02-02T09:36:21;101923.78;;;9.33;72.70
20825;BME280;10573;50.936;6.978;2023-02-02T09:38:51;101941.94;;;9.33;73.17
20825;BME280;10573;50.936;6.978;2023-02-02T09:43:58;101941.38;;;9.28;72.80
20825;BME280;10573;50.936;6.978;2023-02-02T09:49:09;101941.63;;;9.24;73.64
20825;BME280;10573;50.936;6.978;2023-02-02T09:51:40;101944.44;;;9.23;73.78
20825;BME280;10573;50.936;6.978;2023-02-02T09:54:23;101953.34;;;9.25;73.71
20825;BME280;10573;50.936;6.978;2023-02-02T09:56:55;101952.13;;;9.03;74.28
20825;BME280;10573;50.936;6.978;2023-02-02T09:59:33;101968.91;;;9.23;74.07
20825;BME280;10573;50.936;6.978;2023-02-02T10:02:11;101970.78;;;9.35;74.06
20825;BME280;10573;50.936;6.978;2023-02-02T10:04:40;101972.03;;;9.17;74.89
20825;BME280;10573;50.936;6.978;2023-02-02T10:07:13;101980.75;;;9.09;75.17
20825;BME280;10573;50.936;6.978;2023-02-02T10:09:51;101990.38;;;9.40;74.27
20825;BME280;10573;50.936;6.978;2023-02-02T10:12:33;101985.97;;;9.12;75.45
20825;BME280;10573;50.936;6.978;2023-02-02T10:17:54;101998.94;;;8.94;76.11
20825;BME280;10573;50.936;6.978;2023-02-02T10:23:12;102001.22;;;9.15;75.75
20825;BME280;10573;50.936;6.978;2023-02-02T10:25:51;102003.97;;;9.00;76.35
20825;BME280;10573;50.936;6.978;2023-02-02T10:28:20;101999.41;;;9.01;75.55
20825;BME280;10573;50.936;6.978;2023-02-02T10:30:59;101996.78;;;8.86;76.07
20825;BME280;10573;50.936;6.978;2023-02-02T10:33:38;102003.38;;;9.10;75.07
20825;BME280;10573;50.936;6.978;2023-02-02T10:36:20;102009.06;;;9.32;74.75
20825;BME280;10573;50.936;6.978;2023-02-02T10:38:59;102023.22;;;9.37;74.51
20825;BME280;10573;50.936;6.978;2023-02-02T10:41:45;102012.75;;;9.31;74.34
20825;BME280;10573;50.936;6.978;2023-02-02T10:44:37;102027.78;;;9.24;73.87
20825;BME280;10573;50.936;6.978;2023-02-02T10:47:10;102022.53;;;9.21;73.57
20825;BME280;10573;50.936;6.978;2023-02-02T10:49:39;102023.13;;;9.52;72.81
20825;BME280;10573;50.936;6.978;2023-02-02T10:52:20;102021.69;;;9.33;72.90
20825;BME280;10573;50.936;6.978;2023-02-02T10:57:59;102013.66;;;9.45;72.15
20825;BME280;10573;50.936;6.978;2023-02-02T11:03:00;102027.06;;;9.73;71.53
20825;BME280;10573;50.936;6.978;2023-02-02T11:05:29;102022.06;;;9.67;71.77
20825;BME280;10573;50.936;6.978;2023-02-02T11:08:20;102008.44;;;9.93;70.87
20825;BME280;10573;50.936;6.978;2023-02-02T11:10:51;102020.44;;;9.78;70.84
20825;BME280;10573;50.936;6.978;2023-02-02T11:18:40;102028.16;;;9.58;71.22
20825;BME280;10573;50.936;6.978;2023-02-02T11:21:25;102012.16;;;9.53;71.03
20825;BME280;10573;50.936;6.978;2023-02-02T11:26:40;102014.75;;;9.55;70.90
20825;BME280;10573;50.936;6.978;2023-02-02T11:29:12;102020.00;;;9.84;70.44
20825;BME280;10573;50.936;6.978;2023-02-02T11:31:38;102025.63;;;10.06;69.49
20825;BME280;10573;50.936;6.978;2023-02-02T11:34:11;102020.44;;;9.78;70.26
20825;BME280;10573;50.936;6.978;2023-02-02T11:36:39;102019.44;;;9.66;70.11
20825;BME280;10573;50.936;6.978;2023-02-02T11:39:31;102027.81;;;9.63;70.57
20825;BME280;10573;50.936;6.978;2023-02-02T11:42:34;102020.72;;;9.60;70.12
20825;BME280;10573;50.936;6.978;2023-02-02T11:44:56;102024.13;;;9.77;70.20
20825;BME280;10573;50.936;6.978;2023-02-02T11:47:27;102028.28;;;9.95;69.80
20825;BME280;10573;50.936;6.978;2023-02-02T11:49:54;102029.78;;;9.73;69.61
20825;BME280;10573;50.936;6.978;2023-02-02T11:52:23;102025.09;;;10.01;69.48
20825;BME280;10573;50.936;6.978;2023-02-02T11:54:51;102019.25;;;9.82;69.14
20825;BME280;10573;50.936;6.978;2023-02-02T11:57:20;102024.56;;;10.09;68.73
20825;BME280;10573;50.936;6.978;2023-02-02T11:59:48;102015.16;;;10.13;68.78
20825;BME280;10573;50.936;6.978;2023-02-02T12:02:28;102009.53;;;10.03;68.55
20825;BME280;10573;50.936;6.978;2023-02-02T12:07:42;102005.25;;;10.12;67.97
20825;BME280;10573;50.936;6.978;2023-02-02T12:12:52;102000.16;;;10.07;68.33
20825;BME280;10573;50.936;6.978;2023-02-02T12:15:31;102010.19;;;9.94;68.34
20825;BME280;10573;50.936;6.978;2023-02-02T12:18:20;101997.44;;;10.07;68.13
20825;BME280;10573;50.936;6.978;2023-02-02T12:22:03;101989.47;;;10.17;67.36
20825;BME280;10573;50.936;6.978;2023-02-02T12:24:33;101982.78;;;10.34;67.04
20825;BME280;10573;50.936;6.978;2023-02-02T12:27:18;101991.34;;;10.54;66.77
20825;BME280;10573;50.936;6.978;2023-02-02T12:32:44;101995.06;;;10.53;66.34
20825;BME280;10573;50.936;6.978;2023-02-02T12:42:38;101989.72;;;10.75;65.21
20825;BME280;10573;50.936;6.978;2023-02-02T12:50:34;101985.03;;;10.78;64.70
20825;BME280;10573;50.936;6.978;2023-02-02T12:53:06;101988.72;;;11.01;64.02
20825;BME280;10573;50.936;6.978;2023-02-02T12:55:43;101996.53;;;11.77;62.81
20825;BME280;10573;50.936;6.978;2023-02-02T12:58:46;101991.06;;;11.77;61.85
20825;BME280;10573;50.936;6.978;2023-02-02T13:01:39;102000.03;;;12.01;61.02
20825;BME280;10573;50.936;6.978;2023-02-02T13:07:19;101998.31;;;11.42;62.34
20825;BME280;10573;50.936;6.978;2023-02-02T13:10:02;102005.91;;;11.14;62.84
20825;BME280;10573;50.936;6.978;2023-02-02T13:12:34;102008.13;;;11.45;62.60
20825;BME280;10573;50.936;6.978;2023-02-02T13:15:05;102004.13;;;11.37;62.31
20825;BME280;10573;50.936;6.978;2023-02-02T13:17:55;102007.41;;;11.54;61.75
20825;BME280;10573;50.936;6.978;2023-02-02T13:20:29;102003.44;;;11.58;61.87
20825;BME280;10573;50.936;6.978;2023-02-02T13:23:03;102009.88;;;11.57;61.98
20825;BME280;10573;50.936;6.978;2023-02-02T13:25:30;102004.78;;;11.52;62.01
20825;BME280;10573;50.936;6.978;2023-02-02T13:28:00;102012.59;;;11.57;61.74
20825;BME280;10573;50.936;6.978;2023-02-02T13:30:30;102012.97;;;11.52;61.51
20825;BME280;10573;50.936;6.978;2023-02-02T13:32:58;102020.91;;;11.20;62.44
20825;BME280;10573;50.936;6.978;2023-02-02T13:35:38;102017.00;;;11.35;62.45
20825;BME280;10573;50.936;6.978;2023-02-02T13:40:47;102013.25;;;11.25;62.54
20825;BME280;10573;50.936;6.978;2023-02-02T13:43:42;102029.75;;;10.99;62.68
20825;BME280;10573;50.936;6.978;2023-02-02T13:49:45;102003.97;;;11.28;62.27
20825;BME280;10573;50.936;6.978;2023-02-02T13:52:48;102019.28;;;11.53;61.89
20825;BME280;10573;50.936;6.978;2023-02-02T13:57:30;102015.31;;;11.10;62.49
20825;BME280;10573;50.936;6.978;2023-02-02T14:02:47;102012.00;;;10.94;63.23
20825;BME280;10573;50.936;6.978;2023-02-02T14:05:37;102013.41;;;10.99;63.13
20825;BME280;10573;50.936;6.978;2023-02-02T14:08:20;102028.50;;;10.92;63.19
20825;BME280;10573;50.936;6.978;2023-02-02T14:13:21;102020.00;;;11.32;62.64
20825;BME280;10573;50.936;6.978;2023-02-02T14:16:06;102023.91;;;11.52;62.14
20825;BME280;10573;50.936;6.978;2023-02-02T14:23:59;102017.03;;;11.47;61.78
20825;BME280;10573;50.936;6.978;2023-02-02T14:26:43;102018.56;;;11.51;61.77
20825;BME280;10573;50.936;6.978;2023-02-02T14:32:00;102017.47;;;11.29;61.91
20825;BME280;10573;50.936;6.978;2023-02-02T14:34:32;102013.44;;;11.35;61.83
20825;BME280;10573;50.936;6.978;2023-02-02T14:45:42;102025.72;;;11.52;61.64
20825;BME280;10573;50.936;6.978;2023-02-02T14:53:13;102025.34;;;11.45;62.01
20825;BME280;10573;50.936;6.978;2023-02-02T15:01:09;102041.09;;;11.41;62.00
20825;BME280;10573;50.936;6.978;2023-02-02T15:06:31;102047.09;;;11.22;63.00